首页
METAR-TAF:

METAR-TAF

机场 :

Muskegon County Airport

Muskegon, 密歇根州, 美国

纬度: 43-10-16N, 经度: 086-14-12W, 海拔: 191米

当前天气观测

该预报发布于19分钟前的07:55 UTC
静风
温度 -7°C
湿度 86%
气压 1036 hPa
能見度: 16.1公里
多云层高于2900英尺

METAR: KMKG 210755Z AUTO 00000KT 10SM BKN029 M07/M09 A3058 RMK AO2 SLP365 T10671094

时间: 03:14 (08:14 UTC)

预报

该预报发布于2小时和49分钟前的05:25 UTC
预报有效从21日的 06点(UTC)到 22日的 06点(UTC)
风速4节,风向多变
能見度: 10公里
多云层高于3000英尺
从 21日的 1200点(UTC)
风速11节,风向西
能見度: 10公里
多云层高于3500英尺

TAF: KMKG 210525Z 2106/2206 VRB04KT P6SM BKN030 FM211200 26011KT P6SM BKN035

超过4000个机场的气象观测和天气预报(METAR&TAF报告)。

可查询的气象台以黄色和红色小点在地图上表示。

将鼠标移到小点上方,可查看气象台名称。

然后点击查看天气观测和预报。

如需切换地图:点击带黑十字的绿色按钮放大地图;点击带横线的绿色按钮缩小地图;或者点击绿色箭头查看邻近地区的地图。


METAR-TAF: